AAL415 KAUS-KDFW
Flight info
| Callsign | AAL415 |
|---|---|
| Flight time | 0h 36m |
| Altitude | 21000 |
| Route | ELOEL3 FORSS GUTZZ SHMPP3 |
| Aircraft | B738/M-SDE2E3FGHIRWXY/LB1 |
Departure
| Time | 2026-05-06 15:37 |
|---|---|
| Airport | Austin Bergstrom International Airport (KAUS) |
Arrival
| Time | 2026-05-06 16:13 |
|---|---|
| Airport | Dallas Fort Worth International Airport (KDFW) |
| Time | Latitude | Longitude | Altitude | Speed | Heading |
|---|---|---|---|---|---|
| 2026-05-06 14:57 | 30.20244 | -97.67143 | 513 ft | 0 kts | 109° |
| 2026-05-06 15:18 | 30.20245 | -97.67146 | 513 ft | 2 kts | 109° |
| 2026-05-06 15:18 | 30.20251 | -97.67165 | 513 ft | 3 kts | 109° |
| 2026-05-06 15:18 | 30.20257 | -97.67185 | 513 ft | 3 kts | 115° |
| 2026-05-06 15:18 | 30.20267 | -97.67203 | 513 ft | 3 kts | 145° |
| 2026-05-06 15:19 | 30.20285 | -97.67213 | 513 ft | 3 kts | 171° |
| 2026-05-06 15:19 | 30.20295 | -97.67214 | 513 ft | 0 kts | 178° |
| 2026-05-06 15:24 | 30.20278 | -97.67214 | 513 ft | 5 kts | 179° |
| 2026-05-06 15:24 | 30.20215 | -97.67212 | 512 ft | 12 kts | 179° |
| 2026-05-06 15:24 | 30.20135 | -97.67209 | 511 ft | 6 kts | 177° |
| 2026-05-06 15:25 | 30.20095 | -97.67181 | 511 ft | 8 kts | 114° |
| 2026-05-06 15:25 | 30.20091 | -97.67108 | 511 ft | 10 kts | 89° |
| 2026-05-06 15:25 | 30.20083 | -97.67017 | 512 ft | 13 kts | 120° |
| 2026-05-06 15:25 | 30.20032 | -97.66940 | 510 ft | 14 kts | 106° |
| 2026-05-06 15:26 | 30.20006 | -97.66819 | 510 ft | 17 kts | 103° |
| 2026-05-06 15:26 | 30.19995 | -97.66720 | 509 ft | 12 kts | 112° |
| 2026-05-06 15:26 | 30.19918 | -97.66661 | 506 ft | 16 kts | 123° |
| 2026-05-06 15:26 | 30.19910 | -97.66527 | 505 ft | 19 kts | 88° |
| 2026-05-06 15:27 | 30.19899 | -97.66409 | 502 ft | 14 kts | 128° |
| 2026-05-06 15:27 | 30.19842 | -97.66327 | 489 ft | 15 kts | 99° |
| 2026-05-06 15:27 | 30.19843 | -97.66182 | 492 ft | 18 kts | 89° |
| 2026-05-06 15:27 | 30.19844 | -97.66097 | 490 ft | 13 kts | 89° |
| 2026-05-06 15:28 | 30.19832 | -97.66004 | 481 ft | 12 kts | 125° |
| 2026-05-06 15:28 | 30.19755 | -97.65986 | 488 ft | 12 kts | 183° |
| 2026-05-06 15:28 | 30.19672 | -97.65983 | 489 ft | 13 kts | 176° |
| 2026-05-06 15:28 | 30.19576 | -97.65981 | 493 ft | 14 kts | 178° |
| 2026-05-06 15:29 | 30.19479 | -97.65978 | 495 ft | 14 kts | 178° |
| 2026-05-06 15:29 | 30.19386 | -97.65975 | 502 ft | 13 kts | 179° |
| 2026-05-06 15:29 | 30.19297 | -97.65973 | 505 ft | 13 kts | 179° |
| 2026-05-06 15:29 | 30.19203 | -97.65971 | 506 ft | 15 kts | 179° |
| 2026-05-06 15:30 | 30.19096 | -97.65969 | 507 ft | 16 kts | 179° |
| 2026-05-06 15:30 | 30.18990 | -97.65965 | 511 ft | 15 kts | 178° |
| 2026-05-06 15:30 | 30.18885 | -97.65962 | 513 ft | 15 kts | 179° |
| 2026-05-06 15:30 | 30.18768 | -97.65959 | 511 ft | 19 kts | 179° |
| 2026-05-06 15:31 | 30.18629 | -97.65955 | 512 ft | 18 kts | 179° |
| 2026-05-06 15:31 | 30.18559 | -97.65951 | 513 ft | 8 kts | 166° |
| 2026-05-06 15:31 | 30.18519 | -97.65909 | 515 ft | 8 kts | 115° |
| 2026-05-06 15:32 | 30.18394 | -97.65865 | 516 ft | 12 kts | 179° |
| 2026-05-06 15:32 | 30.18307 | -97.65863 | 518 ft | 13 kts | 179° |
| 2026-05-06 15:32 | 30.18217 | -97.65860 | 520 ft | 13 kts | 178° |
| 2026-05-06 15:32 | 30.18126 | -97.65858 | 523 ft | 13 kts | 178° |
| 2026-05-06 15:33 | 30.18039 | -97.65855 | 526 ft | 12 kts | 179° |
| 2026-05-06 15:33 | 30.17956 | -97.65852 | 529 ft | 6 kts | 173° |
| 2026-05-06 15:33 | 30.17930 | -97.65836 | 531 ft | 0 kts | 130° |
| 2026-05-06 15:35 | 30.17930 | -97.65835 | 531 ft | 1 kts | 128° |
| 2026-05-06 15:35 | 30.17919 | -97.65791 | 532 ft | 10 kts | 96° |
| 2026-05-06 15:35 | 30.17952 | -97.65730 | 531 ft | 10 kts | 13° |
| 2026-05-06 15:35 | 30.17990 | -97.65728 | 528 ft | 1 kts | 359° |
| 2026-05-06 15:36 | 30.18001 | -97.65728 | 527 ft | 1 kts | 359° |
| 2026-05-06 15:36 | 30.18022 | -97.65728 | 526 ft | 16 kts | 359° |
| 2026-05-06 15:36 | 30.18422 | -97.65739 | 515 ft | 105 kts | 359° |
| 2026-05-06 15:36 | 30.19441 | -97.65767 | 512 ft | 186 kts | 358° |
| 2026-05-06 15:37 | 30.20854 | -97.65866 | 1192 ft | 207 kts | 355° |
| 2026-05-06 15:37 | 30.22237 | -97.66045 | 2577 ft | 191 kts | 354° |
| 2026-05-06 15:37 | 30.23533 | -97.66223 | 3934 ft | 187 kts | 353° |
| 2026-05-06 15:37 | 30.24888 | -97.66587 | 4719 ft | 219 kts | 343° |
| 2026-05-06 15:38 | 30.26511 | -97.67228 | 4576 ft | 286 kts | 341° |
| 2026-05-06 15:38 | 30.28656 | -97.68109 | 4094 ft | 361 kts | 341° |
| 2026-05-06 15:38 | 30.31023 | -97.69074 | 5249 ft | 335 kts | 341° |
| 2026-05-06 15:38 | 30.33057 | -97.69898 | 6702 ft | 295 kts | 341° |
| 2026-05-06 15:39 | 30.34975 | -97.70662 | 7507 ft | 289 kts | 339° |
| 2026-05-06 15:39 | 30.36875 | -97.71411 | 7955 ft | 287 kts | 339° |
| 2026-05-06 15:39 | 30.38750 | -97.72147 | 8445 ft | 291 kts | 338° |
| 2026-05-06 15:39 | 30.40692 | -97.72908 | 8966 ft | 296 kts | 337° |
| 2026-05-06 15:40 | 30.42661 | -97.73678 | 9454 ft | 301 kts | 336° |
| 2026-05-06 15:40 | 30.44651 | -97.74455 | 9918 ft | 303 kts | 336° |
| 2026-05-06 15:40 | 30.46649 | -97.75232 | 10007 ft | 301 kts | 336° |
| 2026-05-06 15:40 | 30.48660 | -97.76016 | 10045 ft | 316 kts | 336° |
| 2026-05-06 15:41 | 30.50848 | -97.76879 | 10069 ft | 344 kts | 336° |
| 2026-05-06 15:41 | 30.53073 | -97.77746 | 10037 ft | 338 kts | 336° |
| 2026-05-06 15:41 | 30.55249 | -97.78585 | 10169 ft | 319 kts | 336° |
| 2026-05-06 15:41 | 30.57277 | -97.79363 | 10577 ft | 300 kts | 335° |
| 2026-05-06 15:42 | 30.59306 | -97.80157 | 10940 ft | 319 kts | 335° |
| 2026-05-06 15:42 | 30.61498 | -97.81024 | 11139 ft | 344 kts | 335° |
| 2026-05-06 15:42 | 30.63803 | -97.81928 | 11645 ft | 354 kts | 336° |
| 2026-05-06 15:42 | 30.66160 | -97.82845 | 12351 ft | 359 kts | 336° |
| 2026-05-06 15:43 | 30.68537 | -97.83769 | 13106 ft | 362 kts | 335° |
| 2026-05-06 15:43 | 30.70944 | -97.84708 | 13820 ft | 366 kts | 335° |
| 2026-05-06 15:43 | 30.73340 | -97.85646 | 14476 ft | 370 kts | 335° |
| 2026-05-06 15:43 | 30.75790 | -97.86588 | 15159 ft | 373 kts | 335° |
| 2026-05-06 15:44 | 30.78276 | -97.87513 | 15848 ft | 376 kts | 335° |
| 2026-05-06 15:44 | 30.80781 | -97.88435 | 16603 ft | 377 kts | 334° |
| 2026-05-06 15:44 | 30.83274 | -97.89354 | 17436 ft | 375 kts | 334° |
| 2026-05-06 15:44 | 30.85751 | -97.90271 | 18307 ft | 372 kts | 333° |
| 2026-05-06 15:45 | 30.88234 | -97.91196 | 18713 ft | 374 kts | 333° |
| 2026-05-06 15:45 | 30.90699 | -97.92144 | 18915 ft | 371 kts | 330° |
| 2026-05-06 15:45 | 30.93031 | -97.93372 | 18935 ft | 364 kts | 324° |
| 2026-05-06 15:45 | 30.95276 | -97.94714 | 19011 ft | 362 kts | 323° |
| 2026-05-06 15:46 | 30.97478 | -97.96060 | 19015 ft | 361 kts | 323° |
| 2026-05-06 15:46 | 30.99707 | -97.97415 | 19034 ft | 361 kts | 323° |
| 2026-05-06 15:46 | 31.01939 | -97.98757 | 19025 ft | 361 kts | 323° |
| 2026-05-06 15:46 | 31.04129 | -98.00062 | 19023 ft | 361 kts | 323° |
| 2026-05-06 15:47 | 31.06344 | -98.01376 | 19010 ft | 361 kts | 323° |
| 2026-05-06 15:47 | 31.08556 | -98.02683 | 19008 ft | 360 kts | 323° |
| 2026-05-06 15:47 | 31.10790 | -98.04005 | 19019 ft | 360 kts | 323° |
| 2026-05-06 15:47 | 31.13031 | -98.05330 | 19021 ft | 360 kts | 323° |
| 2026-05-06 15:48 | 31.15270 | -98.06655 | 19019 ft | 360 kts | 323° |
| 2026-05-06 15:48 | 31.17546 | -98.07868 | 19011 ft | 368 kts | 331° |
| 2026-05-06 15:48 | 31.20062 | -98.08652 | 19019 ft | 376 kts | 338° |
| 2026-05-06 15:48 | 31.22636 | -98.09283 | 19012 ft | 377 kts | 339° |
| 2026-05-06 15:49 | 31.25216 | -98.09894 | 18998 ft | 377 kts | 339° |
| 2026-05-06 15:49 | 31.27754 | -98.10505 | 19033 ft | 377 kts | 339° |
| 2026-05-06 15:49 | 31.30325 | -98.11139 | 18996 ft | 376 kts | 339° |
| 2026-05-06 15:49 | 31.32870 | -98.11777 | 19045 ft | 371 kts | 339° |
| 2026-05-06 15:50 | 31.35391 | -98.12416 | 19235 ft | 372 kts | 338° |
| 2026-05-06 15:50 | 31.37924 | -98.13064 | 19417 ft | 373 kts | 338° |
| 2026-05-06 15:50 | 31.40465 | -98.13712 | 19597 ft | 372 kts | 339° |
| 2026-05-06 15:50 | 31.43094 | -98.13962 | 19747 ft | 390 kts | 358° |
| 2026-05-06 15:51 | 31.45793 | -98.13511 | 19980 ft | 392 kts | 2° |
| 2026-05-06 15:51 | 31.48484 | -98.12979 | 20155 ft | 392 kts | 1° |
| 2026-05-06 15:51 | 31.51172 | -98.12475 | 20346 ft | 391 kts | 0° |
| 2026-05-06 15:51 | 31.53830 | -98.12023 | 20531 ft | 391 kts | 360° |
| 2026-05-06 15:52 | 31.56528 | -98.11599 | 20745 ft | 391 kts | 359° |
| 2026-05-06 15:52 | 31.59226 | -98.11194 | 20935 ft | 391 kts | 359° |
| 2026-05-06 15:52 | 31.61958 | -98.10788 | 20965 ft | 393 kts | 359° |
| 2026-05-06 15:52 | 31.64667 | -98.10329 | 21015 ft | 396 kts | 6° |
| 2026-05-06 15:53 | 31.67248 | -98.09059 | 21055 ft | 409 kts | 25° |
| 2026-05-06 15:53 | 31.69675 | -98.07355 | 21034 ft | 413 kts | 26° |
| 2026-05-06 15:53 | 31.72148 | -98.05608 | 21029 ft | 415 kts | 26° |
| 2026-05-06 15:53 | 31.74633 | -98.03866 | 21027 ft | 416 kts | 25° |
| 2026-05-06 15:54 | 31.77122 | -98.02141 | 21020 ft | 416 kts | 25° |
| 2026-05-06 15:54 | 31.79620 | -98.00420 | 21011 ft | 416 kts | 25° |
| 2026-05-06 15:54 | 31.82123 | -97.98703 | 21002 ft | 415 kts | 25° |
| 2026-05-06 15:54 | 31.84619 | -97.96990 | 21009 ft | 415 kts | 24° |
| 2026-05-06 15:55 | 31.87110 | -97.95283 | 21000 ft | 415 kts | 24° |
| 2026-05-06 15:55 | 31.89621 | -97.93603 | 20992 ft | 413 kts | 23° |
| 2026-05-06 15:55 | 31.92104 | -97.91970 | 20988 ft | 413 kts | 23° |
| 2026-05-06 15:55 | 31.94613 | -97.90327 | 20984 ft | 412 kts | 23° |
| 2026-05-06 15:56 | 31.97123 | -97.88680 | 20989 ft | 412 kts | 23° |
| 2026-05-06 15:56 | 31.99621 | -97.87036 | 20963 ft | 411 kts | 23° |
| 2026-05-06 15:56 | 32.02121 | -97.85386 | 20702 ft | 410 kts | 23° |
| 2026-05-06 15:56 | 32.04590 | -97.83752 | 20487 ft | 405 kts | 23° |
| 2026-05-06 15:57 | 32.07030 | -97.82134 | 20255 ft | 399 kts | 24° |
| 2026-05-06 15:57 | 32.09415 | -97.80553 | 19954 ft | 396 kts | 24° |
| 2026-05-06 15:57 | 32.11814 | -97.78965 | 19634 ft | 395 kts | 23° |
| 2026-05-06 15:57 | 32.14220 | -97.77371 | 19272 ft | 396 kts | 23° |
| 2026-05-06 15:58 | 32.16616 | -97.75781 | 18995 ft | 394 kts | 24° |
| 2026-05-06 15:58 | 32.18997 | -97.74190 | 18725 ft | 390 kts | 24° |
| 2026-05-06 15:58 | 32.21357 | -97.72610 | 18408 ft | 388 kts | 24° |
| 2026-05-06 15:58 | 32.23706 | -97.71047 | 18060 ft | 386 kts | 22° |
| 2026-05-06 15:59 | 32.26052 | -97.69616 | 17716 ft | 382 kts | 20° |
| 2026-05-06 15:59 | 32.28429 | -97.68240 | 17391 ft | 379 kts | 20° |
| 2026-05-06 15:59 | 32.30791 | -97.66880 | 17060 ft | 376 kts | 20° |
| 2026-05-06 15:59 | 32.33130 | -97.65516 | 16727 ft | 374 kts | 21° |
| 2026-05-06 16:00 | 32.35451 | -97.64149 | 16407 ft | 372 kts | 21° |
| 2026-05-06 16:00 | 32.37756 | -97.62772 | 16074 ft | 370 kts | 24° |
| 2026-05-06 16:00 | 32.39813 | -97.60904 | 15743 ft | 376 kts | 42° |
| 2026-05-06 16:00 | 32.41658 | -97.58708 | 15358 ft | 376 kts | 43° |
| 2026-05-06 16:01 | 32.43512 | -97.56530 | 15045 ft | 373 kts | 42° |
| 2026-05-06 16:01 | 32.45336 | -97.54421 | 14786 ft | 369 kts | 41° |
| 2026-05-06 16:01 | 32.47180 | -97.52314 | 14538 ft | 367 kts | 41° |
| 2026-05-06 16:01 | 32.49015 | -97.50222 | 14286 ft | 365 kts | 42° |
| 2026-05-06 16:02 | 32.50538 | -97.47834 | 13944 ft | 365 kts | 66° |
| 2026-05-06 16:02 | 32.51252 | -97.45004 | 13760 ft | 357 kts | 86° |
| 2026-05-06 16:02 | 32.51523 | -97.42089 | 13548 ft | 351 kts | 88° |
| 2026-05-06 16:02 | 32.51747 | -97.39280 | 13424 ft | 342 kts | 89° |
| 2026-05-06 16:03 | 32.51922 | -97.36500 | 13188 ft | 336 kts | 91° |
| 2026-05-06 16:03 | 32.52052 | -97.33721 | 12735 ft | 338 kts | 91° |
| 2026-05-06 16:03 | 32.52166 | -97.30949 | 12289 ft | 335 kts | 91° |
| 2026-05-06 16:03 | 32.52284 | -97.28215 | 11876 ft | 329 kts | 90° |
| 2026-05-06 16:04 | 32.52416 | -97.25549 | 11514 ft | 317 kts | 90° |
| 2026-05-06 16:04 | 32.52545 | -97.23010 | 11209 ft | 301 kts | 90° |
| 2026-05-06 16:04 | 32.52667 | -97.20606 | 10805 ft | 291 kts | 90° |
| 2026-05-06 16:04 | 32.52798 | -97.18242 | 10371 ft | 284 kts | 90° |
| 2026-05-06 16:05 | 32.52929 | -97.15936 | 9954 ft | 277 kts | 90° |
| 2026-05-06 16:05 | 32.53065 | -97.13683 | 9491 ft | 271 kts | 89° |
| 2026-05-06 16:05 | 32.53344 | -97.11494 | 9015 ft | 270 kts | 70° |
| 2026-05-06 16:05 | 32.54480 | -97.09782 | 8578 ft | 264 kts | 35° |
| 2026-05-06 16:06 | 32.55940 | -97.08563 | 8161 ft | 258 kts | 34° |
| 2026-05-06 16:06 | 32.57379 | -97.07324 | 7745 ft | 253 kts | 34° |
| 2026-05-06 16:06 | 32.58799 | -97.06116 | 7308 ft | 248 kts | 27° |
| 2026-05-06 16:06 | 32.60412 | -97.05597 | 6860 ft | 237 kts | 359° |
| 2026-05-06 16:07 | 32.62033 | -97.05585 | 6451 ft | 228 kts | 356° |
| 2026-05-06 16:07 | 32.63604 | -97.05594 | 6008 ft | 223 kts | 355° |
| 2026-05-06 16:07 | 32.65117 | -97.05596 | 5569 ft | 218 kts | 356° |
| 2026-05-06 16:07 | 32.66615 | -97.05592 | 5123 ft | 212 kts | 357° |
| 2026-05-06 16:08 | 32.68094 | -97.05585 | 4729 ft | 212 kts | 356° |
| 2026-05-06 16:08 | 32.69570 | -97.05578 | 4249 ft | 211 kts | 357° |
| 2026-05-06 16:08 | 32.70520 | -97.05572 | 4056 ft | 199 kts | 357° |
| 2026-05-06 16:08 | 32.71862 | -97.05565 | 3774 ft | 185 kts | 358° |
| 2026-05-06 16:09 | 32.73515 | -97.05556 | 3468 ft | 174 kts | 359° |
| 2026-05-06 16:09 | 32.74294 | -97.05553 | 3318 ft | 166 kts | 360° |
| 2026-05-06 16:09 | 32.75433 | -97.05548 | 3106 ft | 161 kts | 1° |
| 2026-05-06 16:09 | 32.76562 | -97.05542 | 2892 ft | 166 kts | 1° |
| 2026-05-06 16:10 | 32.77715 | -97.05536 | 2664 ft | 163 kts | 2° |
| 2026-05-06 16:10 | 32.78838 | -97.05531 | 2441 ft | 160 kts | 2° |
| 2026-05-06 16:10 | 32.79932 | -97.05524 | 2167 ft | 156 kts | 2° |
| 2026-05-06 16:10 | 32.80972 | -97.05519 | 1955 ft | 143 kts | 1° |
| 2026-05-06 16:11 | 32.81940 | -97.05514 | 1774 ft | 137 kts | 2° |
| 2026-05-06 16:11 | 32.82884 | -97.05509 | 1593 ft | 135 kts | 2° |
| 2026-05-06 16:11 | 32.83858 | -97.05513 | 1439 ft | 146 kts | 1° |
| 2026-05-06 16:11 | 32.84834 | -97.05532 | 1270 ft | 137 kts | 2° |
| 2026-05-06 16:12 | 32.85790 | -97.05511 | 1052 ft | 137 kts | 1° |
| 2026-05-06 16:12 | 32.86736 | -97.05504 | 878 ft | 135 kts | 359° |
| 2026-05-06 16:12 | 32.87670 | -97.05492 | 701 ft | 137 kts | 2° |
| 2026-05-06 16:12 | 32.88613 | -97.05482 | 601 ft | 131 kts | 0° |
| 2026-05-06 16:13 | 32.89412 | -97.05475 | 597 ft | 94 kts | 1° |
| 2026-05-06 16:13 | 32.89925 | -97.05474 | 597 ft | 53 kts | 0° |
| 2026-05-06 16:13 | 32.90124 | -97.05468 | 597 ft | 12 kts | 9° |
| 2026-05-06 16:13 | 32.90213 | -97.05442 | 597 ft | 15 kts | 17° |
| 2026-05-06 16:14 | 32.90326 | -97.05378 | 597 ft | 21 kts | 28° |
| 2026-05-06 16:14 | 32.90408 | -97.05322 | 597 ft | 0 kts | 30° |
| 2026-05-06 16:16 | 32.90409 | -97.05322 | 597 ft | 2 kts | 30° |
| 2026-05-06 16:16 | 32.90441 | -97.05299 | 597 ft | 8 kts | 32° |
| 2026-05-06 16:16 | 32.90473 | -97.05237 | 597 ft | 10 kts | 81° |
| 2026-05-06 16:17 | 32.90475 | -97.05137 | 587 ft | 14 kts | 90° |
| 2026-05-06 16:17 | 32.90474 | -97.05014 | 597 ft | 16 kts | 90° |
| 2026-05-06 16:17 | 32.90474 | -97.04886 | 597 ft | 15 kts | 90° |
| 2026-05-06 16:17 | 32.90474 | -97.04752 | 597 ft | 16 kts | 90° |
| 2026-05-06 16:18 | 32.90470 | -97.04654 | 597 ft | 9 kts | 95° |
| 2026-05-06 16:18 | 32.90460 | -97.04588 | 597 ft | 0 kts | 102° |